Terminal Aerodrome Forecast
Issued by NWS

Current Version | Previous Version | Graphics & Text | Print | Product List | Glossary On
Versions: 1 2 3 4 5 6 7 8 9 10 11 12 13 14 15 16 17 18 19 20 21 22 23
000
FTUS41 KILN 161727
TAFLUK
TAF
KLUK 161727Z 1618/1718 14003KT P6SM SCT050
     FM170000 00000KT P6SM SKC
     FM170300 00000KT 3SM BR SKC
     FM170800 00000KT 1/4SM FG VV002
     FM171200 00000KT 2SM BR SCT050
     FM171300 VRB02KT P6SM SCT050=

USA.gov is the U.S. government's official web portal to all federal, state and local government web resources and services.